createdAt,value
2024-04-25T00:00:28.320Z,997.54
2024-04-25T00:01:28.412Z,997.52
2024-04-25T00:02:28.705Z,997.49
2024-04-25T00:03:28.622Z,997.49
2024-04-25T00:04:28.740Z,997.51
2024-04-25T00:05:28.776Z,997.50
2024-04-25T00:06:28.813Z,997.49
2024-04-25T00:07:28.981Z,997.49
2024-04-25T00:08:29.073Z,997.47
2024-04-25T00:09:29.068Z,997.52
2024-04-25T00:10:29.167Z,997.52
2024-04-25T00:11:29.448Z,997.47
2024-04-25T00:12:29.375Z,997.51
2024-04-25T00:13:29.430Z,997.48
2024-04-25T00:14:29.553Z,997.47
2024-04-25T00:15:29.621Z,997.46
2024-04-25T00:16:29.730Z,997.46
2024-04-25T00:17:30.005Z,997.46
2024-04-25T00:18:29.865Z,997.44
2024-04-25T00:19:29.952Z,997.45
2024-04-25T00:20:30.097Z,997.43
2024-04-25T00:21:30.132Z,997.46
2024-04-25T00:22:30.265Z,997.41
2024-04-25T00:23:30.419Z,997.44
2024-04-25T00:24:30.473Z,997.51
2024-04-25T00:25:30.489Z,997.46
2024-04-25T00:26:30.649Z,997.48
2024-04-25T00:27:30.641Z,997.46
2024-04-25T00:28:30.775Z,997.44
2024-04-25T00:29:30.845Z,997.46
2024-04-25T00:30:30.894Z,997.46
2024-04-25T00:31:30.998Z,997.45
2024-04-25T00:32:31.226Z,997.46
2024-04-25T00:33:31.293Z,997.46
2024-04-25T00:34:31.265Z,997.47
2024-04-25T00:35:31.395Z,997.45
2024-04-25T00:36:31.421Z,997.43
2024-04-25T00:37:31.502Z,997.46
2024-04-25T00:38:31.695Z,997.45
2024-04-25T00:39:31.706Z,997.46
2024-04-25T00:40:31.810Z,997.50
2024-04-25T00:41:31.916Z,997.47
2024-04-25T00:42:32.031Z,997.45
2024-04-25T00:43:32.194Z,997.46
2024-04-25T00:44:32.225Z,997.46
2024-04-25T00:45:32.265Z,997.55
2024-04-25T00:46:32.358Z,997.51
2024-04-25T00:47:32.586Z,997.49
2024-04-25T00:48:32.665Z,997.51
2024-04-25T00:49:32.617Z,997.47
2024-04-25T00:50:32.738Z,997.42
2024-04-25T00:51:32.781Z,997.46
2024-04-25T00:52:32.898Z,997.46
2024-04-25T00:53:33.033Z,997.49
2024-04-25T00:54:33.053Z,997.47
2024-04-25T00:55:33.161Z,997.45
2024-04-25T00:56:33.255Z,997.48
2024-04-25T00:57:33.368Z,997.46
2024-04-25T00:58:33.433Z,997.50
2024-04-25T00:59:33.650Z,997.47
2024-04-25T01:00:33.629Z,997.46
2024-04-25T01:01:33.704Z,997.45
2024-04-25T01:02:33.912Z,997.44
2024-04-25T01:03:33.993Z,997.42
2024-04-25T01:04:33.956Z,997.45
2024-04-25T01:05:34.136Z,997.48
2024-04-25T01:06:34.126Z,997.47
2024-04-25T01:07:34.317Z,997.40
2024-04-25T01:08:34.406Z,997.37
2024-04-25T01:09:34.393Z,997.46
2024-04-25T01:10:34.491Z,997.46
2024-04-25T01:11:34.730Z,997.43
2024-04-25T01:12:34.710Z,997.43
2024-04-25T01:13:34.765Z,997.42
2024-04-25T01:14:34.946Z,997.45
2024-04-25T01:15:34.962Z,997.45
2024-04-25T01:16:35.080Z,997.44
2024-04-25T01:17:35.237Z,997.44
2024-04-25T01:18:35.213Z,997.45
2024-04-25T01:19:35.306Z,997.43
2024-04-25T01:20:35.419Z,997.48
2024-04-25T01:21:35.495Z,997.46
2024-04-25T01:22:35.620Z,997.44
2024-04-25T01:23:35.714Z,997.46
2024-04-25T01:24:35.722Z,997.45
2024-04-25T01:25:35.826Z,997.47
2024-04-25T01:26:35.968Z,997.47
2024-04-25T01:27:36.060Z,997.46
2024-04-25T01:28:36.134Z,997.46
2024-04-25T01:29:36.312Z,997.44
2024-04-25T01:30:36.302Z,997.42
2024-04-25T01:31:36.381Z,997.44
2024-04-25T01:32:36.669Z,997.39
2024-04-25T01:33:36.667Z,997.42
2024-04-25T01:34:36.651Z,997.43
2024-04-25T01:35:36.811Z,997.43
2024-04-25T01:36:36.870Z,997.41
2024-04-25T01:37:37.014Z,997.41
2024-04-25T01:38:37.075Z,997.38
2024-04-25T01:39:37.150Z,997.38
2024-04-25T01:40:37.202Z,997.37
2024-04-25T01:41:37.343Z,997.37
2024-04-25T01:42:37.425Z,997.38
2024-04-25T01:43:37.487Z,997.37
2024-04-25T01:44:37.702Z,997.41
2024-04-25T01:45:37.676Z,997.38
2024-04-25T01:46:37.773Z,997.37
2024-04-25T01:47:38.043Z,997.39
2024-04-25T01:48:38.058Z,997.37
2024-04-25T01:49:38.057Z,997.35
2024-04-25T01:50:38.221Z,997.40
2024-04-25T01:51:38.237Z,997.38
2024-04-25T01:52:38.377Z,997.41
2024-04-25T01:53:38.449Z,997.41
2024-04-25T01:54:38.506Z,997.40
2024-04-25T01:55:38.603Z,997.43
2024-04-25T01:56:38.725Z,997.43
2024-04-25T01:57:38.826Z,997.47
2024-04-25T01:58:38.869Z,997.45
2024-04-25T01:59:39.017Z,997.47
2024-04-25T02:00:39.075Z,997.46
2024-04-25T02:01:39.137Z,997.45
2024-04-25T02:02:39.349Z,997.47
2024-04-25T02:03:39.315Z,997.45
2024-04-25T02:04:39.399Z,997.51
2024-04-25T02:05:41.041Z,997.43
2024-04-25T02:06:39.593Z,997.49
2024-04-25T02:07:39.752Z,997.45
2024-04-25T02:08:39.771Z,997.48
2024-04-25T02:09:39.854Z,997.45
2024-04-25T02:10:39.998Z,997.47
2024-04-25T02:11:40.093Z,997.50
2024-04-25T02:12:40.201Z,997.47
2024-04-25T02:13:40.229Z,997.50
2024-04-25T02:14:40.351Z,997.46
2024-04-25T02:15:40.451Z,997.48
2024-04-25T02:16:40.534Z,997.45
2024-04-25T02:17:40.837Z,997.45
2024-04-25T02:18:40.732Z,997.45
2024-04-25T02:19:40.779Z,997.48
2024-04-25T02:20:40.880Z,997.44
2024-04-25T02:21:40.965Z,997.41
2024-04-25T02:22:41.099Z,997.44
2024-04-25T02:23:41.161Z,997.45
2024-04-25T02:24:41.246Z,997.43
2024-04-25T02:25:41.355Z,997.45
2024-04-25T02:26:41.478Z,997.44
2024-04-25T02:27:41.577Z,997.44
2024-04-25T02:28:41.578Z,997.46
2024-04-25T02:29:41.670Z,997.43
2024-04-25T02:30:41.777Z,997.44
2024-04-25T02:31:41.995Z,997.46
2024-04-25T02:32:42.086Z,997.45
2024-04-25T02:33:42.011Z,997.45
2024-04-25T02:34:42.101Z,997.48
2024-04-25T02:35:42.212Z,997.47
2024-04-25T02:36:42.286Z,997.46
2024-04-25T02:37:42.414Z,997.44
2024-04-25T02:38:42.485Z,997.48
2024-04-25T02:39:42.570Z,997.47
2024-04-25T02:40:42.656Z,997.46
2024-04-25T02:41:42.762Z,997.45
2024-04-25T02:42:42.874Z,997.46
2024-04-25T02:43:42.938Z,997.50
2024-04-25T02:44:43.054Z,997.48
2024-04-25T02:45:43.124Z,997.46
2024-04-25T02:46:43.232Z,997.47
2024-04-25T02:47:43.531Z,997.46
2024-04-25T02:48:43.603Z,997.47
2024-04-25T02:49:43.462Z,997.48
2024-04-25T02:50:43.594Z,997.48
2024-04-25T02:51:43.632Z,997.49
2024-04-25T02:52:43.766Z,997.48
2024-04-25T02:53:43.787Z,997.46
2024-04-25T02:54:43.882Z,997.46
2024-04-25T02:55:43.986Z,997.41
2024-04-25T02:56:44.128Z,997.46
2024-04-25T02:57:44.220Z,997.44
2024-04-25T02:58:44.282Z,997.40
2024-04-25T02:59:44.382Z,997.46
2024-04-25T03:00:44.467Z,997.42
2024-04-25T03:01:44.531Z,997.44
2024-04-25T03:02:44.779Z,997.45
2024-04-25T03:03:44.750Z,997.44
2024-04-25T03:04:44.782Z,997.47
2024-04-25T03:05:44.921Z,997.45
2024-04-25T03:06:44.982Z,997.47
2024-04-25T03:07:45.099Z,997.43
2024-04-25T03:08:45.164Z,997.44
2024-04-25T03:09:45.262Z,997.43
2024-04-25T03:10:45.364Z,997.42
2024-04-25T03:11:45.500Z,997.40
2024-04-25T03:12:45.620Z,997.39
2024-04-25T03:13:45.628Z,997.40
2024-04-25T03:14:45.761Z,997.41
2024-04-25T03:15:45.789Z,997.42
2024-04-25T03:16:45.884Z,997.42
2024-04-25T03:17:46.196Z,997.45
2024-04-25T03:18:46.170Z,997.42
2024-04-25T03:19:46.194Z,997.46
2024-04-25T03:20:46.327Z,997.43
2024-04-25T03:21:46.377Z,997.37
2024-04-25T03:22:46.501Z,997.43
2024-04-25T03:23:46.576Z,997.43
2024-04-25T03:24:46.636Z,997.43
2024-04-25T03:25:46.735Z,997.45
2024-04-25T03:26:46.854Z,997.45
2024-04-25T03:27:47.072Z,997.43
2024-04-25T03:28:47.109Z,997.41
2024-04-25T03:29:47.175Z,997.44
2024-04-25T03:30:47.184Z,997.42
2024-04-25T03:31:47.313Z,997.42
2024-04-25T03:32:47.648Z,997.46
2024-04-25T03:33:47.510Z,997.47
2024-04-25T03:34:47.577Z,997.46
2024-04-25T03:35:47.695Z,997.46
2024-04-25T03:36:47.739Z,997.43
2024-04-25T03:37:47.871Z,997.45
2024-04-25T03:38:47.985Z,997.44
2024-04-25T03:39:48.016Z,997.41
2024-04-25T03:40:48.113Z,997.42
2024-04-25T03:41:48.281Z,997.44
2024-04-25T03:42:48.358Z,997.45
2024-04-25T03:43:48.424Z,997.42
2024-04-25T03:44:48.501Z,997.44
2024-04-25T03:45:48.590Z,997.45
2024-04-25T03:46:48.698Z,997.44
2024-04-25T03:47:48.986Z,997.43
2024-04-25T03:48:49.063Z,997.45
2024-04-25T03:49:48.973Z,997.45
2024-04-25T03:50:49.126Z,997.44
2024-04-25T03:51:49.128Z,997.49
2024-04-25T03:52:49.273Z,997.46
2024-04-25T03:53:49.429Z,997.49
2024-04-25T03:54:49.365Z,997.49
2024-04-25T03:55:49.440Z,997.48
2024-04-25T03:56:49.543Z,997.45
2024-04-25T03:57:49.645Z,997.47
2024-04-25T03:58:49.687Z,997.47
2024-04-25T03:59:49.786Z,997.47
2024-04-25T04:00:49.872Z,997.50
2024-04-25T04:01:50.009Z,997.46
2024-04-25T04:02:50.089Z,997.41
2024-04-25T04:03:50.152Z,997.46
2024-04-25T04:04:50.222Z,997.48
2024-04-25T04:05:50.333Z,997.51
2024-04-25T04:06:50.436Z,997.48
2024-04-25T04:07:50.504Z,997.49
2024-04-25T04:08:50.586Z,997.46
2024-04-25T04:09:50.630Z,997.49
2024-04-25T04:10:50.817Z,997.51
2024-04-25T04:11:50.851Z,997.49
2024-04-25T04:12:50.906Z,997.52
2024-04-25T04:13:50.984Z,997.56
2024-04-25T04:14:51.079Z,997.54
2024-04-25T04:15:51.351Z,997.57
2024-04-25T04:16:51.379Z,997.59
2024-04-25T04:17:51.488Z,997.58
2024-04-25T04:18:51.423Z,997.60
2024-04-25T04:19:51.555Z,997.58
2024-04-25T04:20:51.701Z,997.61
2024-04-25T04:21:51.681Z,997.64
2024-04-25T04:22:51.795Z,997.65
2024-04-25T04:23:51.890Z,997.67
2024-04-25T04:24:51.967Z,997.73
2024-04-25T04:25:52.134Z,997.72
2024-04-25T04:26:52.172Z,997.68
2024-04-25T04:27:52.261Z,997.72
2024-04-25T04:28:52.338Z,997.73
2024-04-25T04:29:52.432Z,997.72
2024-04-25T04:30:52.595Z,997.74
2024-04-25T04:31:52.613Z,997.70
2024-04-25T04:32:52.778Z,997.71
2024-04-25T04:33:52.918Z,997.70
2024-04-25T04:34:52.878Z,997.75
2024-04-25T04:35:53.010Z,997.73
2024-04-25T04:36:53.059Z,997.70
2024-04-25T04:37:53.173Z,997.76
2024-04-25T04:38:53.250Z,997.74
2024-04-25T04:39:53.358Z,997.76
2024-04-25T04:40:53.494Z,997.73
2024-04-25T04:41:53.508Z,997.72
2024-04-25T04:42:53.600Z,997.75
2024-04-25T04:43:53.702Z,997.76
2024-04-25T04:44:53.779Z,997.79
2024-04-25T04:45:53.943Z,997.78
2024-04-25T04:46:53.984Z,997.76
2024-04-25T04:47:54.147Z,997.77
2024-04-25T04:48:54.196Z,997.78
2024-04-25T04:49:54.219Z,997.78
2024-04-25T04:50:54.376Z,997.77
2024-04-25T04:51:54.421Z,997.78
2024-04-25T04:52:54.501Z,997.79
2024-04-25T04:53:54.625Z,997.78
2024-04-25T04:54:54.666Z,997.80
2024-04-25T04:55:54.824Z,997.79
2024-04-25T04:56:54.847Z,997.80
2024-04-25T04:57:54.936Z,997.78
2024-04-25T04:58:55.024Z,997.79
2024-04-25T04:59:55.120Z,997.77
2024-04-25T05:00:55.306Z,997.80
2024-04-25T05:01:55.296Z,997.76
2024-04-25T05:02:55.451Z,997.79
2024-04-25T05:03:55.534Z,997.79
2024-04-25T05:04:55.582Z,997.78
2024-04-25T05:05:55.708Z,997.81
2024-04-25T05:06:55.767Z,997.81
2024-04-25T05:07:55.867Z,997.82
2024-04-25T05:08:55.956Z,997.81
2024-04-25T05:09:56.078Z,997.84
2024-04-25T05:10:56.199Z,997.87
2024-04-25T05:11:56.304Z,997.85
2024-04-25T05:12:56.288Z,997.85
2024-04-25T05:13:56.372Z,997.82
2024-04-25T05:14:56.504Z,997.84
2024-04-25T05:15:56.636Z,997.92
2024-04-25T05:16:56.670Z,997.88
2024-04-25T05:17:56.817Z,997.93
2024-04-25T05:18:56.861Z,997.91
2024-04-25T05:19:56.968Z,997.93
2024-04-25T05:20:57.064Z,997.93
2024-04-25T05:21:57.159Z,997.95
2024-04-25T05:22:57.334Z,997.98
2024-04-25T05:23:57.354Z,997.95
2024-04-25T05:24:57.440Z,998.00
2024-04-25T05:25:57.586Z,998.01
2024-04-25T05:26:57.696Z,998.00
2024-04-25T05:27:57.750Z,997.98
2024-04-25T05:28:57.792Z,998.00
2024-04-25T05:29:57.926Z,997.99
2024-04-25T05:30:57.989Z,998.01
2024-04-25T05:31:58.065Z,998.01
2024-04-25T05:32:58.317Z,998.01
2024-04-25T05:33:58.359Z,997.95
2024-04-25T05:35:00.144Z,997.95
2024-04-25T05:35:58.444Z,997.97
2024-04-25T05:36:58.529Z,997.96
2024-04-25T05:37:58.601Z,997.97
2024-04-25T05:38:58.642Z,997.98
2024-04-25T05:39:58.734Z,997.97
2024-04-25T05:40:58.842Z,997.99
2024-04-25T05:41:58.981Z,997.98
2024-04-25T05:42:59.066Z,997.98
2024-04-25T05:43:59.099Z,997.97
2024-04-25T05:44:59.201Z,997.97
2024-04-25T05:45:59.277Z,997.97
2024-04-25T05:46:59.400Z,997.98
2024-04-25T05:47:59.655Z,997.99
2024-04-25T05:48:59.567Z,997.96
2024-04-25T05:49:59.598Z,998.00
2024-04-25T05:50:59.728Z,998.03
2024-04-25T05:51:59.803Z,998.06
2024-04-25T05:52:59.946Z,998.03
2024-04-25T05:53:59.985Z,998.04
2024-04-25T05:55:00.089Z,998.05
2024-04-25T05:56:00.141Z,998.03
2024-04-25T05:57:00.233Z,998.06
2024-04-25T05:58:00.376Z,998.03
2024-04-25T05:59:00.437Z,998.07
2024-04-25T06:00:00.592Z,998.06
2024-04-25T06:01:00.631Z,998.01
2024-04-25T06:02:00.708Z,998.01
2024-04-25T06:03:03.985Z,997.99
2024-04-25T06:04:00.944Z,997.98
2024-04-25T06:05:00.957Z,997.97
2024-04-25T06:06:01.042Z,997.99
2024-04-25T06:07:01.904Z,998.01
2024-04-25T06:08:01.228Z,998.01
2024-04-25T06:09:01.338Z,998.00
2024-04-25T06:10:01.551Z,997.98
2024-04-25T06:11:01.597Z,998.01
2024-04-25T06:12:01.744Z,998.05
2024-04-25T06:13:01.811Z,998.03
2024-04-25T06:14:01.781Z,998.04
2024-04-25T06:15:01.907Z,998.03
2024-04-25T06:16:01.926Z,998.04
2024-04-25T06:17:02.108Z,998.04
2024-04-25T06:18:02.178Z,998.08
2024-04-25T06:19:02.192Z,998.08
2024-04-25T06:20:02.306Z,998.08
2024-04-25T06:21:02.376Z,998.11
2024-04-25T06:22:02.513Z,998.10
2024-04-25T06:23:02.556Z,998.08
2024-04-25T06:24:02.692Z,998.11
2024-04-25T06:25:02.732Z,998.12
2024-04-25T06:26:02.807Z,998.11
2024-04-25T06:27:02.942Z,998.11
2024-04-25T06:28:02.970Z,998.14
2024-04-25T06:29:03.065Z,998.13
2024-04-25T06:30:03.171Z,998.12
2024-04-25T06:31:03.241Z,998.14
2024-04-25T06:32:13.712Z,998.13
2024-04-25T06:33:03.610Z,998.14
2024-04-25T06:34:03.545Z,998.11
2024-04-25T06:35:03.606Z,998.15
2024-04-25T06:36:03.687Z,998.15
2024-04-25T06:37:03.783Z,998.17
2024-04-25T06:38:03.934Z,998.14
2024-04-25T06:39:03.966Z,998.16
2024-04-25T06:40:04.080Z,998.16
2024-04-25T06:41:04.166Z,998.20
2024-04-25T06:42:04.269Z,998.20
2024-04-25T06:43:04.349Z,998.16
2024-04-25T06:44:11.397Z,998.19
2024-04-25T06:45:05.539Z,998.20
2024-04-25T06:46:04.607Z,998.21
2024-04-25T06:47:04.680Z,998.22
2024-04-25T06:48:04.858Z,998.17
2024-04-25T06:49:05.008Z,998.17
2024-04-25T06:50:05.000Z,998.16
2024-04-25T06:51:05.023Z,998.18
2024-04-25T06:52:05.128Z,998.21
2024-04-25T06:53:05.224Z,998.20
2024-04-25T06:54:05.305Z,998.19
2024-04-25T06:55:05.362Z,998.19
2024-04-25T06:56:05.502Z,998.18
2024-04-25T06:57:05.530Z,998.26
2024-04-25T06:58:05.656Z,998.23
2024-04-25T06:59:05.724Z,998.23
2024-04-25T07:00:05.814Z,998.22
2024-04-25T07:01:05.999Z,998.21
2024-04-25T07:02:06.061Z,998.21
2024-04-25T07:03:06.136Z,998.22
2024-04-25T07:04:06.224Z,998.24
2024-04-25T07:05:06.270Z,998.23
2024-04-25T07:06:06.352Z,998.25
2024-04-25T07:07:06.444Z,998.23
2024-04-25T07:08:06.585Z,998.26
2024-04-25T07:09:06.624Z,998.26
2024-04-25T07:10:06.720Z,998.21
2024-04-25T07:11:06.919Z,998.28
2024-04-25T07:12:06.947Z,998.28
2024-04-25T07:13:07.032Z,998.30
2024-04-25T07:14:07.075Z,998.26
2024-04-25T07:15:07.230Z,998.29
2024-04-25T07:16:07.284Z,998.25
2024-04-25T07:17:07.446Z,998.31
2024-04-25T07:18:07.622Z,998.29
2024-04-25T07:19:07.525Z,998.31
2024-04-25T07:20:07.627Z,998.30
2024-04-25T07:21:07.720Z,998.33
2024-04-25T07:22:07.839Z,998.32
2024-04-25T07:23:08.007Z,998.32
2024-04-25T07:24:07.989Z,998.32
2024-04-25T07:25:08.099Z,998.35
2024-04-25T07:26:08.302Z,998.34
2024-04-25T07:27:08.252Z,998.32
2024-04-25T07:28:08.409Z,998.33
2024-04-25T07:29:08.603Z,998.35
2024-04-25T07:30:08.485Z,998.38
2024-04-25T07:31:08.580Z,998.33
2024-04-25T07:32:08.735Z,998.31
2024-04-25T07:33:08.915Z,998.35
2024-04-25T07:34:08.925Z,998.38
2024-04-25T07:35:08.977Z,998.34
2024-04-25T07:36:08.996Z,998.37
2024-04-25T07:37:09.106Z,998.36
2024-04-25T07:38:09.263Z,998.30
2024-04-25T07:39:09.274Z,998.32
2024-04-25T07:40:09.395Z,998.31
2024-04-25T07:41:09.528Z,998.28
2024-04-25T07:42:09.542Z,998.30
2024-04-25T07:43:09.684Z,998.30
2024-04-25T07:44:09.768Z,998.28
2024-04-25T07:45:09.816Z,998.29
2024-04-25T07:46:09.988Z,998.29
2024-04-25T07:47:10.042Z,998.29
2024-04-25T07:48:10.338Z,998.30
2024-04-25T07:49:10.269Z,998.29
2024-04-25T07:50:10.272Z,998.29
2024-04-25T07:51:10.332Z,998.30
2024-04-25T07:52:10.429Z,998.26
2024-04-25T07:53:10.641Z,998.32
2024-04-25T07:54:10.580Z,998.31
2024-04-25T07:55:10.714Z,998.32
2024-04-25T07:56:10.866Z,998.35
2024-04-25T07:57:10.849Z,998.34
2024-04-25T07:58:10.984Z,998.33
2024-04-25T07:59:11.054Z,998.32
2024-04-25T08:00:11.125Z,998.33
2024-04-25T08:01:11.225Z,998.31
2024-04-25T08:02:11.361Z,998.33
2024-04-25T08:03:11.616Z,998.32
2024-04-25T08:04:11.488Z,998.33
2024-04-25T08:05:11.626Z,998.35
2024-04-25T08:06:11.639Z,998.38
2024-04-25T08:07:11.777Z,998.38
2024-04-25T08:08:11.863Z,998.37
2024-04-25T08:09:11.906Z,998.34
2024-04-25T08:10:11.985Z,998.38
2024-04-25T08:11:12.164Z,998.33
2024-04-25T08:12:12.255Z,998.37
2024-04-25T08:13:12.263Z,998.36
2024-04-25T08:14:12.358Z,998.39
2024-04-25T08:15:12.418Z,998.32
2024-04-25T08:16:12.532Z,998.33
2024-04-25T08:17:12.711Z,998.36
2024-04-25T08:18:12.820Z,998.36
2024-04-25T08:19:12.838Z,998.33
2024-04-25T08:20:12.895Z,998.34
2024-04-25T08:21:12.953Z,998.33
2024-04-25T08:22:13.107Z,998.40
2024-04-25T08:23:13.178Z,998.34
2024-04-25T08:24:13.191Z,998.43
2024-04-25T08:25:13.272Z,998.38
2024-04-25T08:26:15.416Z,998.40
2024-04-25T08:27:13.514Z,998.41
2024-04-25T08:28:13.555Z,998.41
2024-04-25T08:29:13.670Z,998.38
2024-04-25T08:30:13.701Z,998.40
2024-04-25T08:31:13.799Z,998.39
2024-04-25T08:32:14.010Z,998.40
2024-04-25T08:33:14.224Z,998.43
2024-04-25T08:34:14.220Z,998.38
2024-04-25T08:35:14.223Z,998.39
2024-04-25T08:36:14.276Z,998.37
2024-04-25T08:37:14.371Z,998.33
2024-04-25T08:38:14.463Z,998.35
2024-04-25T08:39:14.500Z,998.34
2024-04-25T08:40:14.585Z,998.38
2024-04-25T08:41:14.737Z,998.36
2024-04-25T08:42:14.800Z,998.26
2024-04-25T08:43:14.855Z,998.35
2024-04-25T08:44:16.921Z,998.38
2024-04-25T08:45:16.052Z,998.38
2024-04-25T08:46:15.160Z,998.38
2024-04-25T08:47:15.390Z,998.40
2024-04-25T08:48:15.468Z,998.35
2024-04-25T08:49:15.408Z,998.37
2024-04-25T08:50:17.646Z,998.39
2024-04-25T08:51:15.548Z,998.37
2024-04-25T08:52:15.667Z,998.40
2024-04-25T08:53:15.714Z,998.40
2024-04-25T08:54:15.780Z,998.39
2024-04-25T08:55:15.872Z,998.40
2024-04-25T08:56:15.986Z,998.40
2024-04-25T08:57:16.138Z,998.37
2024-04-25T08:58:16.157Z,998.39
2024-04-25T08:59:16.274Z,998.36
2024-04-25T09:00:16.316Z,998.38
2024-04-25T09:01:16.447Z,998.34
2024-04-25T09:02:16.576Z,998.36
2024-04-25T09:03:16.810Z,998.39
2024-04-25T09:04:16.721Z,998.38
2024-04-25T09:05:16.745Z,998.36
2024-04-25T09:06:16.797Z,998.32
2024-04-25T09:07:16.889Z,998.34
2024-04-25T09:08:17.053Z,998.31
2024-04-25T09:09:17.123Z,998.32
2024-04-25T09:10:17.202Z,998.31
2024-04-25T09:11:17.324Z,998.32
2024-04-25T09:12:17.529Z,998.30
2024-04-25T09:13:17.400Z,998.35
2024-04-25T09:14:17.564Z,998.32
2024-04-25T09:15:17.625Z,998.34
2024-04-25T09:16:17.701Z,998.32
2024-04-25T09:17:17.815Z,998.29
2024-04-25T09:18:18.052Z,998.30
2024-04-25T09:19:18.000Z,998.27
2024-04-25T09:20:18.062Z,998.27
2024-04-25T09:21:18.136Z,998.32
2024-04-25T09:22:18.242Z,998.28
2024-04-25T09:23:18.357Z,998.28
2024-04-25T09:24:18.552Z,998.28
2024-04-25T09:25:18.589Z,998.30
2024-04-25T09:26:18.620Z,998.28
2024-04-25T09:27:18.648Z,998.29
2024-04-25T09:28:18.745Z,998.27
2024-04-25T09:29:18.904Z,998.33
2024-04-25T09:30:18.923Z,998.33
2024-04-25T09:31:19.003Z,998.33
2024-04-25T09:32:27.721Z,998.35
2024-04-25T09:33:19.330Z,998.30
2024-04-25T09:34:19.390Z,998.32
2024-04-25T09:35:19.400Z,998.32
2024-04-25T09:36:19.422Z,998.35
2024-04-25T09:37:19.538Z,998.33
2024-04-25T09:38:19.660Z,998.34
2024-04-25T09:39:19.772Z,998.31
2024-04-25T09:40:19.813Z,998.37
2024-04-25T09:41:19.913Z,998.38
2024-04-25T09:42:19.961Z,998.41
2024-04-25T09:43:20.057Z,998.40
2024-04-25T09:44:20.973Z,998.39
2024-04-25T09:45:20.244Z,998.44
2024-04-25T09:46:20.374Z,998.50
2024-04-25T09:47:20.430Z,998.45
2024-04-25T09:48:20.689Z,998.52
2024-04-25T09:49:20.618Z,998.50
2024-04-25T09:50:20.771Z,998.50
2024-04-25T09:51:20.787Z,998.50
2024-04-25T09:52:20.865Z,998.49
2024-04-25T09:53:21.035Z,998.47
2024-04-25T09:54:21.035Z,998.44
2024-04-25T09:55:21.159Z,998.43
2024-04-25T09:56:21.252Z,998.41
2024-04-25T09:57:21.308Z,998.44
2024-04-25T09:58:21.380Z,998.49
2024-04-25T09:59:21.551Z,998.43
2024-04-25T10:00:21.622Z,998.42
2024-04-25T10:01:21.657Z,998.41
2024-04-25T10:02:21.846Z,998.41
2024-04-25T10:03:21.817Z,998.43
2024-04-25T10:04:22.098Z,998.50
2024-04-25T10:05:22.101Z,998.57
2024-04-25T10:06:22.087Z,998.61
2024-04-25T10:07:22.194Z,998.69
2024-04-25T10:08:22.271Z,998.71
2024-04-25T10:09:22.338Z,998.76
2024-04-25T10:10:22.507Z,998.70
2024-04-25T10:11:22.631Z,998.71
2024-04-25T10:12:22.635Z,998.69
2024-04-25T10:13:22.711Z,998.71
2024-04-25T10:14:22.805Z,998.66
2024-04-25T10:15:22.972Z,998.61
2024-04-25T10:16:22.977Z,998.66
2024-04-25T10:17:23.125Z,998.65
2024-04-25T10:18:23.268Z,998.68
2024-04-25T10:19:23.234Z,998.61
2024-04-25T10:20:23.471Z,998.62
2024-04-25T10:21:23.411Z,998.64
2024-04-25T10:22:23.502Z,998.67
2024-04-25T10:23:23.589Z,998.61
2024-04-25T10:24:23.675Z,998.62
2024-04-25T10:25:23.792Z,998.62
2024-04-25T10:26:23.932Z,998.63
2024-04-25T10:27:23.944Z,998.59
2024-04-25T10:28:24.068Z,998.61
2024-04-25T10:29:24.126Z,998.60
2024-04-25T10:30:24.257Z,998.62
2024-04-25T10:31:24.279Z,998.58
2024-04-25T10:32:24.485Z,998.59
2024-04-25T10:33:24.489Z,998.55
2024-04-25T10:34:24.526Z,998.60
2024-04-25T10:35:24.742Z,998.60
2024-04-25T10:36:24.684Z,998.60
2024-04-25T10:37:24.799Z,998.62
2024-04-25T10:38:25.054Z,998.62
2024-04-25T10:39:25.027Z,998.59
2024-04-25T10:40:25.077Z,998.57
2024-04-25T10:41:25.143Z,998.51
2024-04-25T10:42:25.164Z,998.51
2024-04-25T10:43:25.270Z,998.52
2024-04-25T10:44:25.406Z,998.52
2024-04-25T10:45:25.474Z,998.51
2024-04-25T10:46:25.533Z,998.48
2024-04-25T10:47:25.686Z,998.53
2024-04-25T10:48:25.815Z,998.52
2024-04-25T10:49:25.889Z,998.48
2024-04-25T10:50:25.877Z,998.48
2024-04-25T10:51:25.919Z,998.46
2024-04-25T10:52:25.983Z,998.44
2024-04-25T10:53:26.173Z,998.48
2024-04-25T10:54:26.164Z,998.45
2024-04-25T10:55:26.279Z,998.48
2024-04-25T10:56:26.286Z,998.48
2024-04-25T10:57:26.392Z,998.48
2024-04-25T10:58:26.480Z,998.51
2024-04-25T10:59:26.648Z,998.50
2024-04-25T11:00:27.495Z,998.52
2024-04-25T11:01:26.760Z,998.51
2024-04-25T11:02:27.017Z,998.47
2024-04-25T11:03:26.958Z,998.47
2024-04-25T11:04:27.021Z,998.47
2024-04-25T11:05:27.094Z,998.46
2024-04-25T11:06:27.151Z,998.43
2024-04-25T11:07:27.206Z,998.47
2024-04-25T11:08:27.322Z,998.43
2024-04-25T11:09:27.381Z,998.44
2024-04-25T11:10:27.482Z,998.44
2024-04-25T11:11:27.652Z,998.40
2024-04-25T11:12:27.668Z,998.38
2024-04-25T11:13:27.728Z,998.36
2024-04-25T11:14:27.841Z,998.33
2024-04-25T11:15:27.982Z,998.33
2024-04-25T11:16:28.008Z,998.33
2024-04-25T11:17:31.475Z,998.31
2024-04-25T11:18:30.930Z,998.32
2024-04-25T11:19:28.355Z,998.32
2024-04-25T11:20:28.675Z,998.30
2024-04-25T11:21:28.724Z,998.27
2024-04-25T11:22:36.120Z,998.24
2024-04-25T11:23:29.674Z,998.26
2024-04-25T11:24:28.980Z,998.22
2024-04-25T11:25:28.764Z,998.24
2024-04-25T11:26:28.894Z,998.23
2024-04-25T11:27:28.900Z,998.20
2024-04-25T11:28:28.982Z,998.22
2024-04-25T11:29:29.155Z,998.20
2024-04-25T11:30:29.169Z,998.20
2024-04-25T11:31:29.293Z,998.15
2024-04-25T11:32:29.522Z,998.15
2024-04-25T11:33:29.587Z,998.12
2024-04-25T11:34:29.515Z,998.15
2024-04-25T11:35:29.610Z,998.19
2024-04-25T11:36:31.836Z,998.17
2024-04-25T11:37:29.764Z,998.20
2024-04-25T11:38:29.913Z,998.15
2024-04-25T11:39:29.960Z,998.19
2024-04-25T11:40:30.080Z,998.13
2024-04-25T11:41:30.204Z,998.10
2024-04-25T11:42:30.192Z,998.13
2024-04-25T11:43:30.279Z,998.15
2024-04-25T11:44:30.446Z,998.16
2024-04-25T11:45:32.084Z,998.15
2024-04-25T11:46:30.595Z,998.16
2024-04-25T11:47:30.746Z,998.13
2024-04-25T11:48:30.795Z,998.14
2024-04-25T11:49:30.827Z,998.16
2024-04-25T11:50:30.970Z,998.13
2024-04-25T11:51:31.014Z,998.14
2024-04-25T11:52:31.069Z,998.17
2024-04-25T11:53:31.192Z,998.23
2024-04-25T11:54:31.254Z,998.27
2024-04-25T11:55:31.317Z,998.23
2024-04-25T11:56:31.482Z,998.32
2024-04-25T11:57:31.553Z,998.28
2024-04-25T11:58:31.589Z,998.29
2024-04-25T11:59:31.700Z,998.26
2024-04-25T12:00:31.763Z,998.25
2024-04-25T12:01:31.906Z,998.27
2024-04-25T12:02:31.940Z,998.24
2024-04-25T12:03:32.055Z,998.22
2024-04-25T12:04:32.156Z,998.21
2024-04-25T12:05:32.207Z,998.22
2024-04-25T12:06:32.301Z,998.22
2024-04-25T12:07:32.342Z,998.24
2024-04-25T12:08:32.576Z,998.22
2024-04-25T12:09:32.508Z,998.23
2024-04-25T12:10:32.640Z,998.28
2024-04-25T12:11:32.713Z,998.30
2024-04-25T12:12:32.887Z,998.36
2024-04-25T12:13:32.842Z,998.37
2024-04-25T12:14:32.970Z,998.41
2024-04-25T12:15:33.104Z,998.37
2024-04-25T12:16:33.194Z,998.38
2024-04-25T12:17:33.848Z,998.56
2024-04-25T12:18:33.420Z,998.61
2024-04-25T12:19:33.320Z,998.58
2024-04-25T12:20:33.515Z,998.57
2024-04-25T12:21:33.506Z,998.53
2024-04-25T12:22:33.614Z,998.52
2024-04-25T12:23:33.763Z,998.46
2024-04-25T12:24:33.773Z,998.42
2024-04-25T12:25:33.925Z,998.43
2024-04-25T12:26:34.084Z,998.37
2024-04-25T12:27:34.145Z,998.34
2024-04-25T12:28:35.049Z,998.31
2024-04-25T12:29:34.222Z,998.29